sensor_id;sensor_type;location;lat;lon;timestamp;P1;durP1;ratioP1;P2;durP2;ratioP2
3189;SDS011;1606;51.946;10.558;2022-08-21T00:00:00;7.73;;;2.20;;
3189;SDS011;1606;51.946;10.558;2022-08-21T00:02:28;7.73;;;2.33;;
3189;SDS011;1606;51.946;10.558;2022-08-21T00:04:56;7.30;;;2.47;;
3189;SDS011;1606;51.946;10.558;2022-08-21T00:07:24;7.90;;;2.60;;
3189;SDS011;1606;51.946;10.558;2022-08-21T00:09:52;15.83;;;2.70;;
3189;SDS011;1606;51.946;10.558;2022-08-21T00:12:20;11.53;;;2.70;;
3189;SDS011;1606;51.946;10.558;2022-08-21T00:14:48;7.17;;;1.80;;
3189;SDS011;1606;51.946;10.558;2022-08-21T00:17:23;7.83;;;2.10;;
3189;SDS011;1606;51.946;10.558;2022-08-21T00:19:51;7.53;;;2.23;;
3189;SDS011;1606;51.946;10.558;2022-08-21T00:22:19;7.70;;;2.30;;
3189;SDS011;1606;51.946;10.558;2022-08-21T00:24:47;7.40;;;2.43;;
3189;SDS011;1606;51.946;10.558;2022-08-21T00:27:14;9.03;;;2.30;;
3189;SDS011;1606;51.946;10.558;2022-08-21T00:29:42;11.10;;;2.70;;
3189;SDS011;1606;51.946;10.558;2022-08-21T00:32:10;8.27;;;2.60;;
3189;SDS011;1606;51.946;10.558;2022-08-21T00:34:39;8.67;;;2.40;;
3189;SDS011;1606;51.946;10.558;2022-08-21T00:37:07;7.90;;;2.60;;
3189;SDS011;1606;51.946;10.558;2022-08-21T00:39:34;7.63;;;2.33;;
3189;SDS011;1606;51.946;10.558;2022-08-21T00:42:02;8.47;;;2.40;;
3189;SDS011;1606;51.946;10.558;2022-08-21T00:44:30;7.50;;;2.50;;
3189;SDS011;1606;51.946;10.558;2022-08-21T00:46:58;9.63;;;2.47;;
3189;SDS011;1606;51.946;10.558;2022-08-21T00:49:26;8.17;;;2.70;;
3189;SDS011;1606;51.946;10.558;2022-08-21T00:51:57;8.80;;;2.40;;
3189;SDS011;1606;51.946;10.558;2022-08-21T00:54:27;8.43;;;3.00;;
3189;SDS011;1606;51.946;10.558;2022-08-21T00:56:58;7.90;;;2.90;;
3189;SDS011;1606;51.946;10.558;2022-08-21T00:59:31;9.90;;;2.70;;
3189;SDS011;1606;51.946;10.558;2022-08-21T01:02:01;8.80;;;3.77;;
3189;SDS011;1606;51.946;10.558;2022-08-21T01:04:29;7.50;;;2.40;;
3189;SDS011;1606;51.946;10.558;2022-08-21T01:06:59;8.67;;;3.60;;
3189;SDS011;1606;51.946;10.558;2022-08-21T01:09:26;7.60;;;2.93;;
3189;SDS011;1606;51.946;10.558;2022-08-21T01:11:54;8.73;;;3.00;;
3189;SDS011;1606;51.946;10.558;2022-08-21T01:14:23;10.93;;;3.03;;
3189;SDS011;1606;51.946;10.558;2022-08-21T01:16:51;10.20;;;3.27;;
3189;SDS011;1606;51.946;10.558;2022-08-21T01:19:21;8.70;;;3.20;;
3189;SDS011;1606;51.946;10.558;2022-08-21T01:21:50;9.20;;;3.27;;
3189;SDS011;1606;51.946;10.558;2022-08-21T01:24:19;13.20;;;4.10;;
3189;SDS011;1606;51.946;10.558;2022-08-21T01:26:48;10.83;;;3.87;;
3189;SDS011;1606;51.946;10.558;2022-08-21T01:29:20;8.70;;;3.50;;
3189;SDS011;1606;51.946;10.558;2022-08-21T01:31:55;9.47;;;3.23;;
3189;SDS011;1606;51.946;10.558;2022-08-21T01:34:23;10.13;;;3.17;;
3189;SDS011;1606;51.946;10.558;2022-08-21T01:36:52;7.90;;;3.33;;
3189;SDS011;1606;51.946;10.558;2022-08-21T01:39:20;9.13;;;3.40;;
3189;SDS011;1606;51.946;10.558;2022-08-21T01:41:48;8.80;;;3.50;;
3189;SDS011;1606;51.946;10.558;2022-08-21T01:44:19;8.13;;;3.63;;
3189;SDS011;1606;51.946;10.558;2022-08-21T01:46:48;8.10;;;3.50;;
3189;SDS011;1606;51.946;10.558;2022-08-21T01:49:16;9.07;;;3.13;;
3189;SDS011;1606;51.946;10.558;2022-08-21T01:51:44;8.33;;;3.30;;
3189;SDS011;1606;51.946;10.558;2022-08-21T01:54:13;10.00;;;3.60;;
3189;SDS011;1606;51.946;10.558;2022-08-21T01:56:43;7.87;;;3.20;;
3189;SDS011;1606;51.946;10.558;2022-08-21T01:59:14;8.60;;;3.00;;
3189;SDS011;1606;51.946;10.558;2022-08-21T02:01:42;8.50;;;3.00;;
3189;SDS011;1606;51.946;10.558;2022-08-21T02:04:10;8.70;;;3.13;;
3189;SDS011;1606;51.946;10.558;2022-08-21T02:06:38;8.53;;;3.23;;
3189;SDS011;1606;51.946;10.558;2022-08-21T02:09:06;9.83;;;3.20;;
3189;SDS011;1606;51.946;10.558;2022-08-21T02:11:37;8.27;;;2.97;;
3189;SDS011;1606;51.946;10.558;2022-08-21T02:14:06;8.33;;;3.77;;
3189;SDS011;1606;51.946;10.558;2022-08-21T02:16:34;8.70;;;3.30;;
3189;SDS011;1606;51.946;10.558;2022-08-21T02:19:02;7.67;;;2.97;;
3189;SDS011;1606;51.946;10.558;2022-08-21T02:21:30;10.27;;;3.70;;
3189;SDS011;1606;51.946;10.558;2022-08-21T02:23:58;9.90;;;3.87;;
3189;SDS011;1606;51.946;10.558;2022-08-21T02:26:26;11.13;;;3.93;;
3189;SDS011;1606;51.946;10.558;2022-08-21T02:28:55;8.37;;;3.17;;
3189;SDS011;1606;51.946;10.558;2022-08-21T02:31:23;8.53;;;3.00;;
3189;SDS011;1606;51.946;10.558;2022-08-21T02:33:52;13.40;;;3.83;;
3189;SDS011;1606;51.946;10.558;2022-08-21T02:36:19;9.53;;;3.47;;
3189;SDS011;1606;51.946;10.558;2022-08-21T02:38:47;8.97;;;3.63;;
3189;SDS011;1606;51.946;10.558;2022-08-21T02:41:16;8.03;;;3.30;;
3189;SDS011;1606;51.946;10.558;2022-08-21T02:43:47;9.13;;;3.47;;
3189;SDS011;1606;51.946;10.558;2022-08-21T02:46:17;9.40;;;3.80;;
3189;SDS011;1606;51.946;10.558;2022-08-21T02:48:46;8.83;;;3.10;;
3189;SDS011;1606;51.946;10.558;2022-08-21T02:51:15;8.90;;;3.20;;
3189;SDS011;1606;51.946;10.558;2022-08-21T02:53:46;8.00;;;3.20;;
3189;SDS011;1606;51.946;10.558;2022-08-21T02:56:15;10.73;;;3.80;;
3189;SDS011;1606;51.946;10.558;2022-08-21T02:58:46;10.50;;;3.47;;
3189;SDS011;1606;51.946;10.558;2022-08-21T03:01:18;7.50;;;3.07;;
3189;SDS011;1606;51.946;10.558;2022-08-21T03:03:46;11.70;;;3.70;;
3189;SDS011;1606;51.946;10.558;2022-08-21T03:06:17;8.83;;;3.87;;
3189;SDS011;1606;51.946;10.558;2022-08-21T03:08:46;8.50;;;3.67;;
3189;SDS011;1606;51.946;10.558;2022-08-21T03:11:14;9.27;;;3.53;;
3189;SDS011;1606;51.946;10.558;2022-08-21T03:13:42;8.30;;;3.50;;
3189;SDS011;1606;51.946;10.558;2022-08-21T03:16:10;9.73;;;3.40;;
3189;SDS011;1606;51.946;10.558;2022-08-21T03:18:39;9.17;;;3.30;;
3189;SDS011;1606;51.946;10.558;2022-08-21T03:21:07;8.40;;;3.47;;
3189;SDS011;1606;51.946;10.558;2022-08-21T03:23:35;8.10;;;3.30;;
3189;SDS011;1606;51.946;10.558;2022-08-21T03:26:03;8.03;;;3.47;;
3189;SDS011;1606;51.946;10.558;2022-08-21T03:28:33;9.10;;;3.97;;
3189;SDS011;1606;51.946;10.558;2022-08-21T03:31:01;12.10;;;3.10;;
3189;SDS011;1606;51.946;10.558;2022-08-21T03:33:28;7.90;;;3.13;;
3189;SDS011;1606;51.946;10.558;2022-08-21T03:35:59;8.53;;;3.43;;
3189;SDS011;1606;51.946;10.558;2022-08-21T03:38:30;8.40;;;3.10;;
3189;SDS011;1606;51.946;10.558;2022-08-21T03:41:00;7.70;;;3.07;;
3189;SDS011;1606;51.946;10.558;2022-08-21T03:43:28;9.03;;;3.70;;
3189;SDS011;1606;51.946;10.558;2022-08-21T03:45:58;9.30;;;3.50;;
3189;SDS011;1606;51.946;10.558;2022-08-21T03:48:25;11.20;;;3.33;;
3189;SDS011;1606;51.946;10.558;2022-08-21T03:50:53;9.17;;;3.87;;
3189;SDS011;1606;51.946;10.558;2022-08-21T03:53:23;9.37;;;3.60;;
3189;SDS011;1606;51.946;10.558;2022-08-21T03:55:51;8.50;;;3.20;;
3189;SDS011;1606;51.946;10.558;2022-08-21T03:58:20;10.02;;;3.53;;
3189;SDS011;1606;51.946;10.558;2022-08-21T04:00:50;8.10;;;3.10;;
3189;SDS011;1606;51.946;10.558;2022-08-21T04:03:20;9.63;;;3.60;;
3189;SDS011;1606;51.946;10.558;2022-08-21T04:05:48;7.77;;;2.70;;
3189;SDS011;1606;51.946;10.558;2022-08-21T04:08:16;9.10;;;3.60;;
3189;SDS011;1606;51.946;10.558;2022-08-21T04:10:47;10.43;;;3.20;;
3189;SDS011;1606;51.946;10.558;2022-08-21T04:13:17;9.40;;;3.70;;
3189;SDS011;1606;51.946;10.558;2022-08-21T04:15:45;8.20;;;3.30;;
3189;SDS011;1606;51.946;10.558;2022-08-21T04:18:13;8.90;;;2.93;;
3189;SDS011;1606;51.946;10.558;2022-08-21T04:20:42;8.50;;;3.47;;
3189;SDS011;1606;51.946;10.558;2022-08-21T04:23:16;7.90;;;3.00;;
3189;SDS011;1606;51.946;10.558;2022-08-21T04:25:51;12.43;;;3.33;;
3189;SDS011;1606;51.946;10.558;2022-08-21T04:28:20;9.00;;;3.30;;
3189;SDS011;1606;51.946;10.558;2022-08-21T04:30:54;7.80;;;2.87;;
3189;SDS011;1606;51.946;10.558;2022-08-21T04:33:22;8.57;;;3.30;;
3189;SDS011;1606;51.946;10.558;2022-08-21T04:35:51;7.63;;;2.70;;
3189;SDS011;1606;51.946;10.558;2022-08-21T04:38:19;10.33;;;3.60;;
3189;SDS011;1606;51.946;10.558;2022-08-21T04:40:47;8.27;;;3.17;;
3189;SDS011;1606;51.946;10.558;2022-08-21T04:43:17;9.77;;;3.77;;
3189;SDS011;1606;51.946;10.558;2022-08-21T04:45:48;9.20;;;3.30;;
3189;SDS011;1606;51.946;10.558;2022-08-21T04:48:17;9.73;;;3.70;;
3189;SDS011;1606;51.946;10.558;2022-08-21T04:50:47;9.60;;;3.50;;
3189;SDS011;1606;51.946;10.558;2022-08-21T04:53:20;7.97;;;3.40;;
3189;SDS011;1606;51.946;10.558;2022-08-21T04:55:51;7.73;;;2.90;;
3189;SDS011;1606;51.946;10.558;2022-08-21T04:58:22;9.20;;;3.33;;
3189;SDS011;1606;51.946;10.558;2022-08-21T05:00:55;9.27;;;3.53;;
3189;SDS011;1606;51.946;10.558;2022-08-21T05:03:25;10.83;;;3.73;;
3189;SDS011;1606;51.946;10.558;2022-08-21T05:05:54;7.73;;;2.70;;
3189;SDS011;1606;51.946;10.558;2022-08-21T05:08:22;9.20;;;3.33;;
3189;SDS011;1606;51.946;10.558;2022-08-21T05:10:53;8.27;;;3.10;;
3189;SDS011;1606;51.946;10.558;2022-08-21T05:13:26;10.13;;;3.70;;
3189;SDS011;1606;51.946;10.558;2022-08-21T05:15:54;9.20;;;3.10;;
3189;SDS011;1606;51.946;10.558;2022-08-21T05:18:22;8.47;;;3.27;;
3189;SDS011;1606;51.946;10.558;2022-08-21T05:20:50;8.37;;;3.00;;
3189;SDS011;1606;51.946;10.558;2022-08-21T05:23:18;9.57;;;3.30;;
3189;SDS011;1606;51.946;10.558;2022-08-21T05:25:46;7.90;;;3.30;;
3189;SDS011;1606;51.946;10.558;2022-08-21T05:28:13;9.10;;;3.40;;
3189;SDS011;1606;51.946;10.558;2022-08-21T05:30:43;9.60;;;3.90;;
3189;SDS011;1606;51.946;10.558;2022-08-21T05:33:11;9.57;;;3.97;;
3189;SDS011;1606;51.946;10.558;2022-08-21T05:35:39;11.47;;;3.90;;
3189;SDS011;1606;51.946;10.558;2022-08-21T05:38:07;10.17;;;4.77;;
3189;SDS011;1606;51.946;10.558;2022-08-21T05:40:43;11.60;;;4.30;;
3189;SDS011;1606;51.946;10.558;2022-08-21T05:43:11;12.23;;;3.70;;
3189;SDS011;1606;51.946;10.558;2022-08-21T05:45:39;9.43;;;4.10;;
3189;SDS011;1606;51.946;10.558;2022-08-21T05:48:13;9.70;;;4.67;;
3189;SDS011;1606;51.946;10.558;2022-08-21T05:50:43;10.70;;;4.73;;
3189;SDS011;1606;51.946;10.558;2022-08-21T05:53:12;9.90;;;4.60;;
3189;SDS011;1606;51.946;10.558;2022-08-21T05:55:40;9.20;;;4.07;;
3189;SDS011;1606;51.946;10.558;2022-08-21T05:58:12;9.87;;;4.30;;
3189;SDS011;1606;51.946;10.558;2022-08-21T06:00:40;9.27;;;4.10;;
3189;SDS011;1606;51.946;10.558;2022-08-21T06:03:13;9.40;;;4.40;;
3189;SDS011;1606;51.946;10.558;2022-08-21T06:05:43;10.07;;;4.22;;
3189;SDS011;1606;51.946;10.558;2022-08-21T06:08:11;9.90;;;4.47;;
3189;SDS011;1606;51.946;10.558;2022-08-21T06:10:39;10.27;;;4.10;;
3189;SDS011;1606;51.946;10.558;2022-08-21T06:13:07;10.93;;;4.10;;
3189;SDS011;1606;51.946;10.558;2022-08-21T06:15:35;8.57;;;4.00;;
3189;SDS011;1606;51.946;10.558;2022-08-21T06:18:03;8.80;;;3.80;;
3189;SDS011;1606;51.946;10.558;2022-08-21T06:20:32;9.47;;;4.67;;
3189;SDS011;1606;51.946;10.558;2022-08-21T06:23:00;16.83;;;4.70;;
3189;SDS011;1606;51.946;10.558;2022-08-21T06:25:29;9.37;;;4.33;;
3189;SDS011;1606;51.946;10.558;2022-08-21T06:28:01;9.50;;;3.97;;
3189;SDS011;1606;51.946;10.558;2022-08-21T06:30:29;9.50;;;4.10;;
3189;SDS011;1606;51.946;10.558;2022-08-21T06:32:57;10.40;;;4.90;;
3189;SDS011;1606;51.946;10.558;2022-08-21T06:35:26;10.40;;;4.57;;
3189;SDS011;1606;51.946;10.558;2022-08-21T06:37:56;10.17;;;4.80;;
3189;SDS011;1606;51.946;10.558;2022-08-21T06:40:24;11.30;;;4.50;;
3189;SDS011;1606;51.946;10.558;2022-08-21T06:42:55;8.80;;;3.77;;
3189;SDS011;1606;51.946;10.558;2022-08-21T06:45:23;11.83;;;4.17;;
3189;SDS011;1606;51.946;10.558;2022-08-21T06:47:56;8.80;;;4.27;;
3189;SDS011;1606;51.946;10.558;2022-08-21T06:50:24;8.70;;;3.47;;
3189;SDS011;1606;51.946;10.558;2022-08-21T06:52:59;9.63;;;3.70;;
3189;SDS011;1606;51.946;10.558;2022-08-21T06:55:27;9.70;;;4.10;;
3189;SDS011;1606;51.946;10.558;2022-08-21T06:57:57;10.17;;;4.03;;
3189;SDS011;1606;51.946;10.558;2022-08-21T07:00:25;10.43;;;4.00;;
3189;SDS011;1606;51.946;10.558;2022-08-21T07:02:53;10.10;;;3.57;;
3189;SDS011;1606;51.946;10.558;2022-08-21T07:05:21;10.00;;;3.83;;
3189;SDS011;1606;51.946;10.558;2022-08-21T07:07:49;8.80;;;3.70;;
3189;SDS011;1606;51.946;10.558;2022-08-21T07:10:18;8.60;;;3.23;;
3189;SDS011;1606;51.946;10.558;2022-08-21T07:12:48;9.43;;;3.33;;
3189;SDS011;1606;51.946;10.558;2022-08-21T07:15:25;9.50;;;3.87;;
3189;SDS011;1606;51.946;10.558;2022-08-21T07:17:55;10.80;;;3.33;;
3189;SDS011;1606;51.946;10.558;2022-08-21T07:20:23;12.17;;;3.40;;
3189;SDS011;1606;51.946;10.558;2022-08-21T07:22:51;7.27;;;2.60;;
3189;SDS011;1606;51.946;10.558;2022-08-21T07:25:21;7.60;;;3.20;;
3189;SDS011;1606;51.946;10.558;2022-08-21T07:27:49;8.53;;;3.60;;
3189;SDS011;1606;51.946;10.558;2022-08-21T07:30:16;9.53;;;3.00;;
3189;SDS011;1606;51.946;10.558;2022-08-21T07:32:44;7.93;;;2.67;;
3189;SDS011;1606;51.946;10.558;2022-08-21T07:35:15;8.70;;;3.20;;
3189;SDS011;1606;51.946;10.558;2022-08-21T07:37:43;8.57;;;2.50;;
3189;SDS011;1606;51.946;10.558;2022-08-21T07:40:11;8.90;;;2.60;;
3189;SDS011;1606;51.946;10.558;2022-08-21T07:42:41;7.50;;;2.50;;
3189;SDS011;1606;51.946;10.558;2022-08-21T07:45:11;8.10;;;2.90;;
3189;SDS011;1606;51.946;10.558;2022-08-21T07:47:40;7.57;;;2.83;;
3189;SDS011;1606;51.946;10.558;2022-08-21T07:50:08;7.83;;;2.93;;
3189;SDS011;1606;51.946;10.558;2022-08-21T07:52:37;7.50;;;2.97;;
3189;SDS011;1606;51.946;10.558;2022-08-21T07:55:05;8.47;;;2.80;;
3189;SDS011;1606;51.946;10.558;2022-08-21T07:57:34;9.10;;;2.80;;
3189;SDS011;1606;51.946;10.558;2022-08-21T08:00:04;8.70;;;2.30;;
3189;SDS011;1606;51.946;10.558;2022-08-21T08:02:32;8.70;;;2.70;;
3189;SDS011;1606;51.946;10.558;2022-08-21T08:05:01;8.00;;;2.67;;
3189;SDS011;1606;51.946;10.558;2022-08-21T08:07:29;10.43;;;2.80;;
3189;SDS011;1606;51.946;10.558;2022-08-21T08:09:57;7.90;;;2.47;;
3189;SDS011;1606;51.946;10.558;2022-08-21T08:12:25;7.30;;;2.43;;
3189;SDS011;1606;51.946;10.558;2022-08-21T08:14:55;9.52;;;2.72;;
3189;SDS011;1606;51.946;10.558;2022-08-21T08:17:25;6.87;;;2.57;;
3189;SDS011;1606;51.946;10.558;2022-08-21T08:19:53;8.63;;;2.60;;
3189;SDS011;1606;51.946;10.558;2022-08-21T08:22:22;10.40;;;3.17;;
3189;SDS011;1606;51.946;10.558;2022-08-21T08:24:51;6.73;;;2.13;;
3189;SDS011;1606;51.946;10.558;2022-08-21T08:27:19;7.50;;;2.77;;
3189;SDS011;1606;51.946;10.558;2022-08-21T08:29:48;8.70;;;2.80;;
3189;SDS011;1606;51.946;10.558;2022-08-21T08:32:16;10.60;;;2.97;;
3189;SDS011;1606;51.946;10.558;2022-08-21T08:34:45;8.70;;;3.00;;
3189;SDS011;1606;51.946;10.558;2022-08-21T08:37:14;10.23;;;3.43;;
3189;SDS011;1606;51.946;10.558;2022-08-21T08:39:43;11.67;;;3.53;;
3189;SDS011;1606;51.946;10.558;2022-08-21T08:42:14;9.97;;;3.73;;
3189;SDS011;1606;51.946;10.558;2022-08-21T08:45:00;11.93;;;3.37;;
3189;SDS011;1606;51.946;10.558;2022-08-21T08:47:31;9.00;;;2.93;;
3189;SDS011;1606;51.946;10.558;2022-08-21T08:50:04;11.47;;;2.83;;
3189;SDS011;1606;51.946;10.558;2022-08-21T08:52:34;9.97;;;3.43;;
3189;SDS011;1606;51.946;10.558;2022-08-21T08:55:05;10.70;;;3.10;;
3189;SDS011;1606;51.946;10.558;2022-08-21T08:57:35;9.00;;;2.93;;
3189;SDS011;1606;51.946;10.558;2022-08-21T09:00:08;10.93;;;2.60;;
3189;SDS011;1606;51.946;10.558;2022-08-21T09:02:42;8.27;;;3.03;;
3189;SDS011;1606;51.946;10.558;2022-08-21T09:05:16;13.00;;;3.10;;
3189;SDS011;1606;51.946;10.558;2022-08-21T09:07:51;9.67;;;2.67;;
3189;SDS011;1606;51.946;10.558;2022-08-21T09:10:30;10.63;;;2.73;;
3189;SDS011;1606;51.946;10.558;2022-08-21T09:13:06;10.57;;;3.40;;
3189;SDS011;1606;51.946;10.558;2022-08-21T09:15:44;13.63;;;3.00;;
3189;SDS011;1606;51.946;10.558;2022-08-21T09:18:28;8.20;;;2.90;;
3189;SDS011;1606;51.946;10.558;2022-08-21T09:21:07;8.00;;;2.57;;
3189;SDS011;1606;51.946;10.558;2022-08-21T09:23:43;9.33;;;2.93;;
3189;SDS011;1606;51.946;10.558;2022-08-21T09:26:17;9.37;;;2.93;;
3189;SDS011;1606;51.946;10.558;2022-08-21T09:28:47;9.87;;;2.80;;
3189;SDS011;1606;51.946;10.558;2022-08-21T09:31:21;9.13;;;3.40;;
3189;SDS011;1606;51.946;10.558;2022-08-21T09:33:56;10.57;;;2.70;;
3189;SDS011;1606;51.946;10.558;2022-08-21T09:36:31;9.07;;;3.03;;
3189;SDS011;1606;51.946;10.558;2022-08-21T09:39:05;11.10;;;3.30;;
3189;SDS011;1606;51.946;10.558;2022-08-21T09:41:34;8.63;;;2.77;;
3189;SDS011;1606;51.946;10.558;2022-08-21T09:44:03;8.70;;;2.63;;
3189;SDS011;1606;51.946;10.558;2022-08-21T09:46:33;9.60;;;2.93;;
3189;SDS011;1606;51.946;10.558;2022-08-21T09:49:02;9.37;;;3.20;;
3189;SDS011;1606;51.946;10.558;2022-08-21T09:51:36;10.53;;;2.97;;
3189;SDS011;1606;51.946;10.558;2022-08-21T09:54:11;10.60;;;3.00;;
3189;SDS011;1606;51.946;10.558;2022-08-21T09:56:51;7.03;;;2.47;;
3189;SDS011;1606;51.946;10.558;2022-08-21T09:59:39;11.20;;;3.40;;
3189;SDS011;1606;51.946;10.558;2022-08-21T10:02:22;12.13;;;3.57;;
3189;SDS011;1606;51.946;10.558;2022-08-21T10:04:53;9.70;;;3.47;;
3189;SDS011;1606;51.946;10.558;2022-08-21T10:07:25;10.03;;;3.70;;
3189;SDS011;1606;51.946;10.558;2022-08-21T10:09:59;10.80;;;3.20;;
3189;SDS011;1606;51.946;10.558;2022-08-21T10:12:31;8.50;;;3.40;;
3189;SDS011;1606;51.946;10.558;2022-08-21T10:15:09;11.33;;;3.60;;
3189;SDS011;1606;51.946;10.558;2022-08-21T10:17:44;10.65;;;3.97;;
3189;SDS011;1606;51.946;10.558;2022-08-21T10:20:20;11.70;;;3.50;;
3189;SDS011;1606;51.946;10.558;2022-08-21T10:22:55;14.13;;;3.33;;
3189;SDS011;1606;51.946;10.558;2022-08-21T10:25:31;10.13;;;3.83;;
3189;SDS011;1606;51.946;10.558;2022-08-21T10:28:04;12.10;;;3.37;;
3189;SDS011;1606;51.946;10.558;2022-08-21T10:30:41;10.20;;;3.90;;
3189;SDS011;1606;51.946;10.558;2022-08-21T10:33:21;11.40;;;3.17;;
3189;SDS011;1606;51.946;10.558;2022-08-21T10:36:03;11.03;;;4.63;;
3189;SDS011;1606;51.946;10.558;2022-08-21T10:38:53;10.43;;;3.87;;
3189;SDS011;1606;51.946;10.558;2022-08-21T10:41:54;10.53;;;3.83;;
3189;SDS011;1606;51.946;10.558;2022-08-21T10:44:37;10.07;;;3.60;;
3189;SDS011;1606;51.946;10.558;2022-08-21T10:47:13;12.60;;;4.80;;
3189;SDS011;1606;51.946;10.558;2022-08-21T10:49:56;11.90;;;3.60;;
3189;SDS011;1606;51.946;10.558;2022-08-21T10:52:32;12.43;;;3.47;;
3189;SDS011;1606;51.946;10.558;2022-08-21T10:55:16;11.40;;;4.63;;
3189;SDS011;1606;51.946;10.558;2022-08-21T10:57:47;11.20;;;4.00;;
3189;SDS011;1606;51.946;10.558;2022-08-21T11:00:18;9.80;;;4.30;;
3189;SDS011;1606;51.946;10.558;2022-08-21T11:02:49;11.80;;;3.77;;
3189;SDS011;1606;51.946;10.558;2022-08-21T11:05:24;10.93;;;4.27;;
3189;SDS011;1606;51.946;10.558;2022-08-21T11:07:57;10.90;;;3.83;;
3189;SDS011;1606;51.946;10.558;2022-08-21T11:10:33;10.80;;;4.07;;
3189;SDS011;1606;51.946;10.558;2022-08-21T11:13:22;11.20;;;3.80;;
3189;SDS011;1606;51.946;10.558;2022-08-21T11:15:58;10.83;;;3.83;;
3189;SDS011;1606;51.946;10.558;2022-08-21T11:18:33;9.10;;;3.30;;
3189;SDS011;1606;51.946;10.558;2022-08-21T11:21:10;11.20;;;4.30;;
3189;SDS011;1606;51.946;10.558;2022-08-21T11:23:47;12.10;;;3.50;;
3189;SDS011;1606;51.946;10.558;2022-08-21T11:26:25;12.37;;;3.67;;
3189;SDS011;1606;51.946;10.558;2022-08-21T11:28:58;9.57;;;3.50;;
3189;SDS011;1606;51.946;10.558;2022-08-21T11:31:33;11.97;;;3.90;;
3189;SDS011;1606;51.946;10.558;2022-08-21T11:34:14;15.90;;;4.47;;
3189;SDS011;1606;51.946;10.558;2022-08-21T11:36:51;10.23;;;4.40;;
3189;SDS011;1606;51.946;10.558;2022-08-21T11:39:28;9.20;;;3.13;;
3189;SDS011;1606;51.946;10.558;2022-08-21T11:42:08;10.03;;;5.20;;
3189;SDS011;1606;51.946;10.558;2022-08-21T11:44:49;10.83;;;3.97;;
3189;SDS011;1606;51.946;10.558;2022-08-21T11:47:24;12.80;;;3.07;;
3189;SDS011;1606;51.946;10.558;2022-08-21T11:50:06;9.50;;;3.40;;
3189;SDS011;1606;51.946;10.558;2022-08-21T11:53:08;9.63;;;2.97;;
3189;SDS011;1606;51.946;10.558;2022-08-21T11:55:41;10.70;;;3.90;;
3189;SDS011;1606;51.946;10.558;2022-08-21T11:58:16;10.47;;;3.60;;
3189;SDS011;1606;51.946;10.558;2022-08-21T12:00:49;8.90;;;3.10;;
3189;SDS011;1606;51.946;10.558;2022-08-21T12:03:22;7.63;;;3.47;;
3189;SDS011;1606;51.946;10.558;2022-08-21T12:05:55;8.47;;;3.00;;
3189;SDS011;1606;51.946;10.558;2022-08-21T12:08:27;8.50;;;3.13;;
3189;SDS011;1606;51.946;10.558;2022-08-21T12:11:00;9.73;;;2.83;;
3189;SDS011;1606;51.946;10.558;2022-08-21T12:13:33;13.33;;;3.60;;
3189;SDS011;1606;51.946;10.558;2022-08-21T12:16:09;10.97;;;3.40;;
3189;SDS011;1606;51.946;10.558;2022-08-21T12:18:38;8.77;;;3.33;;
3189;SDS011;1606;51.946;10.558;2022-08-21T12:21:17;9.25;;;3.42;;
3189;SDS011;1606;51.946;10.558;2022-08-21T12:23:49;11.03;;;3.50;;
3189;SDS011;1606;51.946;10.558;2022-08-21T12:26:28;10.93;;;2.93;;
3189;SDS011;1606;51.946;10.558;2022-08-21T12:29:12;7.87;;;3.17;;
3189;SDS011;1606;51.946;10.558;2022-08-21T12:31:53;8.10;;;3.20;;
3189;SDS011;1606;51.946;10.558;2022-08-21T12:34:26;9.07;;;3.20;;
3189;SDS011;1606;51.946;10.558;2022-08-21T12:37:00;10.60;;;2.83;;
3189;SDS011;1606;51.946;10.558;2022-08-21T12:39:31;7.63;;;2.70;;
3189;SDS011;1606;51.946;10.558;2022-08-21T12:42:05;7.07;;;2.60;;
3189;SDS011;1606;51.946;10.558;2022-08-21T12:44:42;10.70;;;3.90;;
3189;SDS011;1606;51.946;10.558;2022-08-21T12:47:16;9.37;;;2.37;;
3189;SDS011;1606;51.946;10.558;2022-08-21T12:49:51;6.37;;;2.33;;
3189;SDS011;1606;51.946;10.558;2022-08-21T12:52:22;7.83;;;2.50;;
3189;SDS011;1606;51.946;10.558;2022-08-21T12:54:58;8.30;;;2.87;;
3189;SDS011;1606;51.946;10.558;2022-08-21T12:57:27;6.80;;;3.00;;
3189;SDS011;1606;51.946;10.558;2022-08-21T12:59:58;7.67;;;2.50;;
3189;SDS011;1606;51.946;10.558;2022-08-21T13:02:29;8.70;;;3.00;;
3189;SDS011;1606;51.946;10.558;2022-08-21T13:05:02;7.10;;;2.63;;
3189;SDS011;1606;51.946;10.558;2022-08-21T13:07:32;7.47;;;2.30;;
3189;SDS011;1606;51.946;10.558;2022-08-21T13:10:03;7.23;;;2.40;;
3189;SDS011;1606;51.946;10.558;2022-08-21T13:12:33;7.30;;;2.97;;
3189;SDS011;1606;51.946;10.558;2022-08-21T13:15:04;7.07;;;2.40;;
3189;SDS011;1606;51.946;10.558;2022-08-21T13:17:35;10.03;;;2.60;;
3189;SDS011;1606;51.946;10.558;2022-08-21T13:20:09;9.00;;;2.70;;
3189;SDS011;1606;51.946;10.558;2022-08-21T13:22:46;9.50;;;2.80;;
3189;SDS011;1606;51.946;10.558;2022-08-21T13:25:16;8.47;;;2.40;;
3189;SDS011;1606;51.946;10.558;2022-08-21T13:27:56;10.80;;;2.73;;
3189;SDS011;1606;51.946;10.558;2022-08-21T13:30:27;9.03;;;2.30;;
3189;SDS011;1606;51.946;10.558;2022-08-21T13:32:57;10.10;;;2.60;;
3189;SDS011;1606;51.946;10.558;2022-08-21T13:35:28;7.63;;;2.30;;
3189;SDS011;1606;51.946;10.558;2022-08-21T13:37:58;7.17;;;2.40;;
3189;SDS011;1606;51.946;10.558;2022-08-21T13:40:29;8.00;;;2.27;;
3189;SDS011;1606;51.946;10.558;2022-08-21T13:42:59;6.93;;;2.43;;
3189;SDS011;1606;51.946;10.558;2022-08-21T13:45:31;9.43;;;2.03;;
3189;SDS011;1606;51.946;10.558;2022-08-21T13:48:00;7.00;;;2.50;;
3189;SDS011;1606;51.946;10.558;2022-08-21T13:50:40;5.93;;;1.90;;
3189;SDS011;1606;51.946;10.558;2022-08-21T13:53:19;5.80;;;1.67;;
3189;SDS011;1606;51.946;10.558;2022-08-21T13:55:49;10.80;;;2.40;;
3189;SDS011;1606;51.946;10.558;2022-08-21T13:58:29;6.70;;;1.97;;
3189;SDS011;1606;51.946;10.558;2022-08-21T14:01:17;8.20;;;2.20;;
3189;SDS011;1606;51.946;10.558;2022-08-21T14:03:48;7.73;;;1.90;;
3189;SDS011;1606;51.946;10.558;2022-08-21T14:06:22;6.93;;;2.10;;
3189;SDS011;1606;51.946;10.558;2022-08-21T14:08:52;9.13;;;2.33;;
3189;SDS011;1606;51.946;10.558;2022-08-21T14:11:23;6.30;;;2.03;;
3189;SDS011;1606;51.946;10.558;2022-08-21T14:13:56;7.63;;;2.13;;
3189;SDS011;1606;51.946;10.558;2022-08-21T14:16:28;6.90;;;2.00;;
3189;SDS011;1606;51.946;10.558;2022-08-21T14:19:15;7.83;;;2.33;;
3189;SDS011;1606;51.946;10.558;2022-08-21T14:21:47;6.70;;;1.77;;
3189;SDS011;1606;51.946;10.558;2022-08-21T14:24:25;6.43;;;1.67;;
3189;SDS011;1606;51.946;10.558;2022-08-21T14:26:55;6.47;;;2.10;;
3189;SDS011;1606;51.946;10.558;2022-08-21T14:29:35;5.97;;;1.60;;
3189;SDS011;1606;51.946;10.558;2022-08-21T14:32:12;6.77;;;1.80;;
3189;SDS011;1606;51.946;10.558;2022-08-21T14:34:50;5.60;;;1.77;;
3189;SDS011;1606;51.946;10.558;2022-08-21T14:37:20;5.43;;;1.70;;
3189;SDS011;1606;51.946;10.558;2022-08-21T14:39:48;5.73;;;1.70;;
3189;SDS011;1606;51.946;10.558;2022-08-21T14:42:15;12.50;;;6.07;;
3189;SDS011;1606;51.946;10.558;2022-08-21T14:44:44;6.90;;;2.80;;
3189;SDS011;1606;51.946;10.558;2022-08-21T14:47:13;5.80;;;1.90;;
3189;SDS011;1606;51.946;10.558;2022-08-21T14:49:41;5.70;;;1.70;;
3189;SDS011;1606;51.946;10.558;2022-08-21T14:52:09;6.27;;;1.97;;
3189;SDS011;1606;51.946;10.558;2022-08-21T14:54:36;5.77;;;1.90;;
3189;SDS011;1606;51.946;10.558;2022-08-21T14:57:05;7.63;;;1.70;;
3189;SDS011;1606;51.946;10.558;2022-08-21T14:59:34;9.40;;;1.73;;
3189;SDS011;1606;51.946;10.558;2022-08-21T15:02:03;5.40;;;1.40;;
3189;SDS011;1606;51.946;10.558;2022-08-21T15:04:33;6.13;;;1.90;;
3189;SDS011;1606;51.946;10.558;2022-08-21T15:07:02;6.47;;;1.60;;
3189;SDS011;1606;51.946;10.558;2022-08-21T15:09:30;6.30;;;1.63;;
3189;SDS011;1606;51.946;10.558;2022-08-21T15:11:58;6.37;;;1.83;;
3189;SDS011;1606;51.946;10.558;2022-08-21T15:14:28;6.57;;;1.73;;
3189;SDS011;1606;51.946;10.558;2022-08-21T15:16:59;7.03;;;2.50;;
3189;SDS011;1606;51.946;10.558;2022-08-21T15:19:27;5.90;;;1.50;;
3189;SDS011;1606;51.946;10.558;2022-08-21T15:21:57;6.60;;;2.50;;